sensor_id;sensor_type;location;lat;lon;timestamp;P1;durP1;ratioP1;P2;durP2;ratioP2
53052;SDS011;38934;52.690;6.184;2023-06-01T00:00:02;11.70;;;6.10;;
53052;SDS011;38934;52.690;6.184;2023-06-01T00:02:32;13.75;;;6.70;;
53052;SDS011;38934;52.690;6.184;2023-06-01T00:04:57;10.90;;;6.60;;
53052;SDS011;38934;52.690;6.184;2023-06-01T00:07:23;13.65;;;6.68;;
53052;SDS011;38934;52.690;6.184;2023-06-01T00:09:49;12.32;;;6.32;;
53052;SDS011;38934;52.690;6.184;2023-06-01T00:12:14;12.15;;;6.35;;
53052;SDS011;38934;52.690;6.184;2023-06-01T00:14:40;12.27;;;7.07;;
53052;SDS011;38934;52.690;6.184;2023-06-01T00:17:06;10.63;;;6.40;;
53052;SDS011;38934;52.690;6.184;2023-06-01T00:19:32;9.77;;;5.90;;
53052;SDS011;38934;52.690;6.184;2023-06-01T00:22:00;10.00;;;6.57;;
53052;SDS011;38934;52.690;6.184;2023-06-01T00:24:27;13.90;;;6.43;;
53052;SDS011;38934;52.690;6.184;2023-06-01T00:26:52;13.68;;;6.70;;
53052;SDS011;38934;52.690;6.184;2023-06-01T00:29:18;16.20;;;7.15;;
53052;SDS011;38934;52.690;6.184;2023-06-01T00:31:44;13.13;;;6.60;;
53052;SDS011;38934;52.690;6.184;2023-06-01T00:34:10;13.32;;;6.85;;
53052;SDS011;38934;52.690;6.184;2023-06-01T00:36:36;12.90;;;7.15;;
53052;SDS011;38934;52.690;6.184;2023-06-01T00:39:02;12.43;;;6.78;;
53052;SDS011;38934;52.690;6.184;2023-06-01T00:41:30;12.05;;;6.82;;
53052;SDS011;38934;52.690;6.184;2023-06-01T00:43:57;12.10;;;6.70;;
53052;SDS011;38934;52.690;6.184;2023-06-01T00:46:23;14.07;;;6.93;;
53052;SDS011;38934;52.690;6.184;2023-06-01T00:48:49;15.95;;;7.70;;
53052;SDS011;38934;52.690;6.184;2023-06-01T00:51:18;14.82;;;6.95;;
53052;SDS011;38934;52.690;6.184;2023-06-01T00:53:45;12.45;;;7.15;;
53052;SDS011;38934;52.690;6.184;2023-06-01T00:56:10;16.17;;;7.25;;
53052;SDS011;38934;52.690;6.184;2023-06-01T00:58:40;16.33;;;7.40;;
53052;SDS011;38934;52.690;6.184;2023-06-01T01:01:06;10.93;;;6.43;;
53052;SDS011;38934;52.690;6.184;2023-06-01T01:03:33;10.85;;;6.70;;
53052;SDS011;38934;52.690;6.184;2023-06-01T01:09:23;13.40;;;6.22;;
53052;SDS011;38934;52.690;6.184;2023-06-01T01:11:59;13.05;;;6.68;;
53052;SDS011;38934;52.690;6.184;2023-06-01T01:14:39;9.77;;;6.20;;
53052;SDS011;38934;52.690;6.184;2023-06-01T01:17:20;12.07;;;6.63;;
53052;SDS011;38934;52.690;6.184;2023-06-01T01:19:52;12.45;;;7.45;;
53052;SDS011;38934;52.690;6.184;2023-06-01T01:25:10;13.32;;;7.07;;
53052;SDS011;38934;52.690;6.184;2023-06-01T01:30:45;10.77;;;6.45;;
53052;SDS011;38934;52.690;6.184;2023-06-01T01:33:12;12.32;;;6.32;;
53052;SDS011;38934;52.690;6.184;2023-06-01T01:35:38;16.02;;;7.25;;
53052;SDS011;38934;52.690;6.184;2023-06-01T01:38:04;14.20;;;6.55;;
53052;SDS011;38934;52.690;6.184;2023-06-01T01:40:31;13.65;;;7.07;;
53052;SDS011;38934;52.690;6.184;2023-06-01T01:42:59;16.75;;;6.90;;
53052;SDS011;38934;52.690;6.184;2023-06-01T01:45:26;17.02;;;7.53;;
53052;SDS011;38934;52.690;6.184;2023-06-01T01:48:05;14.05;;;7.47;;
53052;SDS011;38934;52.690;6.184;2023-06-01T01:50:51;14.15;;;6.97;;
53052;SDS011;38934;52.690;6.184;2023-06-01T01:53:22;16.08;;;7.50;;
53052;SDS011;38934;52.690;6.184;2023-06-01T01:55:48;13.20;;;7.00;;
53052;SDS011;38934;52.690;6.184;2023-06-01T01:58:16;14.82;;;7.47;;
53052;SDS011;38934;52.690;6.184;2023-06-01T02:00:42;12.63;;;6.38;;
53052;SDS011;38934;52.690;6.184;2023-06-01T02:03:15;15.27;;;7.63;;
53052;SDS011;38934;52.690;6.184;2023-06-01T02:05:42;15.18;;;7.50;;
53052;SDS011;38934;52.690;6.184;2023-06-01T02:08:09;14.80;;;7.53;;
53052;SDS011;38934;52.690;6.184;2023-06-01T02:10:35;16.17;;;7.47;;
53052;SDS011;38934;52.690;6.184;2023-06-01T02:13:01;12.85;;;7.65;;
53052;SDS011;38934;52.690;6.184;2023-06-01T02:15:26;14.90;;;7.47;;
53052;SDS011;38934;52.690;6.184;2023-06-01T02:17:52;12.18;;;7.30;;
53052;SDS011;38934;52.690;6.184;2023-06-01T02:20:19;16.92;;;7.82;;
53052;SDS011;38934;52.690;6.184;2023-06-01T02:22:45;12.40;;;7.05;;
53052;SDS011;38934;52.690;6.184;2023-06-01T02:25:11;16.17;;;7.95;;
53052;SDS011;38934;52.690;6.184;2023-06-01T02:27:37;16.92;;;8.02;;
53052;SDS011;38934;52.690;6.184;2023-06-01T02:30:03;19.33;;;7.75;;
53052;SDS011;38934;52.690;6.184;2023-06-01T02:32:31;13.52;;;7.50;;
53052;SDS011;38934;52.690;6.184;2023-06-01T02:34:58;13.52;;;7.10;;
53052;SDS011;38934;52.690;6.184;2023-06-01T02:37:24;12.38;;;7.00;;
53052;SDS011;38934;52.690;6.184;2023-06-01T02:39:50;16.50;;;8.02;;
53052;SDS011;38934;52.690;6.184;2023-06-01T02:42:16;11.60;;;6.85;;
53052;SDS011;38934;52.690;6.184;2023-06-01T02:44:43;12.60;;;7.05;;
53052;SDS011;38934;52.690;6.184;2023-06-01T02:47:09;12.00;;;6.80;;
53052;SDS011;38934;52.690;6.184;2023-06-01T02:49:35;15.60;;;6.50;;
53052;SDS011;38934;52.690;6.184;2023-06-01T02:52:01;13.93;;;7.18;;
53052;SDS011;38934;52.690;6.184;2023-06-01T02:54:28;15.35;;;6.70;;
53052;SDS011;38934;52.690;6.184;2023-06-01T02:56:54;11.55;;;6.78;;
53052;SDS011;38934;52.690;6.184;2023-06-01T02:59:20;22.85;;;7.47;;
53052;SDS011;38934;52.690;6.184;2023-06-01T03:01:45;13.60;;;7.32;;
53052;SDS011;38934;52.690;6.184;2023-06-01T03:04:11;15.77;;;6.70;;
53052;SDS011;38934;52.690;6.184;2023-06-01T03:06:38;16.00;;;7.05;;
53052;SDS011;38934;52.690;6.184;2023-06-01T03:09:05;17.42;;;7.20;;
53052;SDS011;38934;52.690;6.184;2023-06-01T03:11:30;11.80;;;6.97;;
53052;SDS011;38934;52.690;6.184;2023-06-01T03:13:56;15.15;;;7.18;;
53052;SDS011;38934;52.690;6.184;2023-06-01T03:16:23;13.57;;;7.28;;
53052;SDS011;38934;52.690;6.184;2023-06-01T03:18:49;14.13;;;7.53;;
53052;SDS011;38934;52.690;6.184;2023-06-01T03:21:15;14.43;;;6.38;;
53052;SDS011;38934;52.690;6.184;2023-06-01T03:23:41;18.10;;;7.22;;
53052;SDS011;38934;52.690;6.184;2023-06-01T03:26:12;12.48;;;7.00;;
53052;SDS011;38934;52.690;6.184;2023-06-01T03:28:39;14.55;;;6.68;;
53052;SDS011;38934;52.690;6.184;2023-06-01T03:31:04;12.70;;;6.45;;
53052;SDS011;38934;52.690;6.184;2023-06-01T03:33:31;12.90;;;6.70;;
53052;SDS011;38934;52.690;6.184;2023-06-01T03:35:58;15.07;;;6.70;;
53052;SDS011;38934;52.690;6.184;2023-06-01T03:38:23;16.08;;;7.45;;
53052;SDS011;38934;52.690;6.184;2023-06-01T03:40:49;12.68;;;6.72;;
53052;SDS011;38934;52.690;6.184;2023-06-01T03:43:15;12.50;;;6.93;;
53052;SDS011;38934;52.690;6.184;2023-06-01T03:45:42;17.52;;;7.05;;
53052;SDS011;38934;52.690;6.184;2023-06-01T03:48:08;15.27;;;7.45;;
53052;SDS011;38934;52.690;6.184;2023-06-01T03:50:33;12.77;;;6.97;;
53052;SDS011;38934;52.690;6.184;2023-06-01T03:52:59;16.40;;;6.63;;
53052;SDS011;38934;52.690;6.184;2023-06-01T03:55:24;9.43;;;6.78;;
53052;SDS011;38934;52.690;6.184;2023-06-01T03:57:52;14.23;;;6.70;;
53052;SDS011;38934;52.690;6.184;2023-06-01T04:00:17;14.02;;;6.60;;
53052;SDS011;38934;52.690;6.184;2023-06-01T04:05:15;10.27;;;6.45;;
53052;SDS011;38934;52.690;6.184;2023-06-01T04:07:43;14.23;;;6.60;;
53052;SDS011;38934;52.690;6.184;2023-06-01T04:10:10;11.20;;;6.22;;
53052;SDS011;38934;52.690;6.184;2023-06-01T04:12:38;14.63;;;6.55;;
53052;SDS011;38934;52.690;6.184;2023-06-01T04:15:05;13.35;;;6.32;;
53052;SDS011;38934;52.690;6.184;2023-06-01T04:17:32;14.05;;;6.10;;
53052;SDS011;38934;52.690;6.184;2023-06-01T04:20:00;11.70;;;5.15;;
53052;SDS011;38934;52.690;6.184;2023-06-01T04:22:26;10.70;;;5.75;;
53052;SDS011;38934;52.690;6.184;2023-06-01T04:24:53;10.82;;;5.53;;
53052;SDS011;38934;52.690;6.184;2023-06-01T04:27:18;11.52;;;6.03;;
53052;SDS011;38934;52.690;6.184;2023-06-01T04:29:45;12.57;;;6.03;;
53052;SDS011;38934;52.690;6.184;2023-06-01T04:32:13;12.63;;;5.65;;
53052;SDS011;38934;52.690;6.184;2023-06-01T04:34:50;10.90;;;6.07;;
53052;SDS011;38934;52.690;6.184;2023-06-01T04:37:16;11.57;;;5.50;;
53052;SDS011;38934;52.690;6.184;2023-06-01T04:39:46;11.27;;;5.80;;
53052;SDS011;38934;52.690;6.184;2023-06-01T04:42:16;9.48;;;5.18;;
53052;SDS011;38934;52.690;6.184;2023-06-01T04:44:44;11.80;;;5.15;;
53052;SDS011;38934;52.690;6.184;2023-06-01T04:47:15;11.48;;;5.40;;
53052;SDS011;38934;52.690;6.184;2023-06-01T04:49:42;10.35;;;5.22;;
53052;SDS011;38934;52.690;6.184;2023-06-01T04:52:08;10.10;;;5.18;;
53052;SDS011;38934;52.690;6.184;2023-06-01T04:54:37;11.80;;;5.55;;
53052;SDS011;38934;52.690;6.184;2023-06-01T04:57:03;10.52;;;5.72;;
53052;SDS011;38934;52.690;6.184;2023-06-01T04:59:31;12.85;;;6.28;;
53052;SDS011;38934;52.690;6.184;2023-06-01T05:01:58;11.02;;;5.65;;
53052;SDS011;38934;52.690;6.184;2023-06-01T05:04:24;12.05;;;6.22;;
53052;SDS011;38934;52.690;6.184;2023-06-01T05:06:50;11.10;;;5.57;;
53052;SDS011;38934;52.690;6.184;2023-06-01T05:09:17;12.77;;;5.82;;
53052;SDS011;38934;52.690;6.184;2023-06-01T05:11:43;11.18;;;5.00;;
53052;SDS011;38934;52.690;6.184;2023-06-01T05:14:10;12.27;;;5.30;;
53052;SDS011;38934;52.690;6.184;2023-06-01T05:16:37;9.35;;;4.82;;
53052;SDS011;38934;52.690;6.184;2023-06-01T05:19:03;12.07;;;5.40;;
53052;SDS011;38934;52.690;6.184;2023-06-01T05:21:29;9.50;;;4.95;;
53052;SDS011;38934;52.690;6.184;2023-06-01T05:23:57;9.00;;;4.80;;
53052;SDS011;38934;52.690;6.184;2023-06-01T05:26:23;12.20;;;5.20;;
53052;SDS011;38934;52.690;6.184;2023-06-01T05:28:48;10.82;;;4.60;;
53052;SDS011;38934;52.690;6.184;2023-06-01T05:31:14;8.00;;;4.68;;
53052;SDS011;38934;52.690;6.184;2023-06-01T05:33:40;10.43;;;5.07;;
53052;SDS011;38934;52.690;6.184;2023-06-01T05:36:06;9.32;;;5.03;;
53052;SDS011;38934;52.690;6.184;2023-06-01T05:38:31;10.15;;;5.07;;
53052;SDS011;38934;52.690;6.184;2023-06-01T05:40:57;11.25;;;4.68;;
53052;SDS011;38934;52.690;6.184;2023-06-01T05:43:23;8.18;;;4.93;;
53052;SDS011;38934;52.690;6.184;2023-06-01T05:45:49;11.68;;;4.70;;
53052;SDS011;38934;52.690;6.184;2023-06-01T05:48:15;10.23;;;4.78;;
53052;SDS011;38934;52.690;6.184;2023-06-01T05:50:41;10.15;;;4.88;;
53052;SDS011;38934;52.690;6.184;2023-06-01T05:53:08;8.57;;;4.78;;
53052;SDS011;38934;52.690;6.184;2023-06-01T05:55:34;10.90;;;4.85;;
53052;SDS011;38934;52.690;6.184;2023-06-01T05:58:00;10.20;;;5.10;;
53052;SDS011;38934;52.690;6.184;2023-06-01T06:00:26;8.55;;;5.10;;
53052;SDS011;38934;52.690;6.184;2023-06-01T06:02:52;16.35;;;5.38;;
53052;SDS011;38934;52.690;6.184;2023-06-01T06:05:17;11.95;;;5.60;;
53052;SDS011;38934;52.690;6.184;2023-06-01T06:07:43;13.38;;;5.05;;
53052;SDS011;38934;52.690;6.184;2023-06-01T06:10:11;9.10;;;5.25;;
53052;SDS011;38934;52.690;6.184;2023-06-01T06:12:37;8.65;;;5.05;;
53052;SDS011;38934;52.690;6.184;2023-06-01T06:15:03;12.18;;;5.45;;
53052;SDS011;38934;52.690;6.184;2023-06-01T06:17:30;8.65;;;5.32;;
53052;SDS011;38934;52.690;6.184;2023-06-01T06:19:58;9.32;;;5.15;;
53052;SDS011;38934;52.690;6.184;2023-06-01T06:22:25;10.25;;;5.30;;
53052;SDS011;38934;52.690;6.184;2023-06-01T06:24:50;10.25;;;5.40;;
53052;SDS011;38934;52.690;6.184;2023-06-01T06:27:16;9.43;;;5.05;;
53052;SDS011;38934;52.690;6.184;2023-06-01T06:29:41;7.28;;;4.90;;
53052;SDS011;38934;52.690;6.184;2023-06-01T06:32:07;8.40;;;4.80;;
53052;SDS011;38934;52.690;6.184;2023-06-01T06:34:33;11.60;;;5.30;;
53052;SDS011;38934;52.690;6.184;2023-06-01T06:37:06;10.45;;;4.80;;
53052;SDS011;38934;52.690;6.184;2023-06-01T06:39:33;10.48;;;5.07;;
53052;SDS011;38934;52.690;6.184;2023-06-01T06:41:59;12.00;;;4.80;;
53052;SDS011;38934;52.690;6.184;2023-06-01T06:44:28;12.07;;;5.07;;
53052;SDS011;38934;52.690;6.184;2023-06-01T06:46:54;9.45;;;4.88;;
53052;SDS011;38934;52.690;6.184;2023-06-01T06:49:20;7.90;;;4.57;;
53052;SDS011;38934;52.690;6.184;2023-06-01T06:51:45;10.38;;;4.80;;
53052;SDS011;38934;52.690;6.184;2023-06-01T06:54:11;11.05;;;5.07;;
53052;SDS011;38934;52.690;6.184;2023-06-01T06:56:37;8.73;;;4.95;;
53052;SDS011;38934;52.690;6.184;2023-06-01T06:59:03;12.00;;;4.88;;
53052;SDS011;38934;52.690;6.184;2023-06-01T07:01:28;9.15;;;4.40;;
53052;SDS011;38934;52.690;6.184;2023-06-01T07:03:54;11.13;;;5.22;;
53052;SDS011;38934;52.690;6.184;2023-06-01T07:06:20;10.55;;;4.43;;
53052;SDS011;38934;52.690;6.184;2023-06-01T07:08:47;10.73;;;4.30;;
53052;SDS011;38934;52.690;6.184;2023-06-01T07:11:14;9.82;;;4.60;;
53052;SDS011;38934;52.690;6.184;2023-06-01T07:13:40;10.95;;;4.88;;
53052;SDS011;38934;52.690;6.184;2023-06-01T07:16:06;10.30;;;5.15;;
53052;SDS011;38934;52.690;6.184;2023-06-01T07:18:32;8.57;;;4.63;;
53052;SDS011;38934;52.690;6.184;2023-06-01T07:20:57;9.48;;;4.55;;
53052;SDS011;38934;52.690;6.184;2023-06-01T07:23:23;7.80;;;4.22;;
53052;SDS011;38934;52.690;6.184;2023-06-01T07:25:49;9.43;;;4.55;;
53052;SDS011;38934;52.690;6.184;2023-06-01T07:28:14;12.18;;;4.80;;
53052;SDS011;38934;52.690;6.184;2023-06-01T07:30:40;9.43;;;4.40;;
53052;SDS011;38934;52.690;6.184;2023-06-01T07:33:06;9.65;;;5.13;;
53052;SDS011;38934;52.690;6.184;2023-06-01T07:35:33;8.50;;;4.78;;
53052;SDS011;38934;52.690;6.184;2023-06-01T07:37:58;10.00;;;4.85;;
53052;SDS011;38934;52.690;6.184;2023-06-01T07:40:25;12.20;;;4.78;;
53052;SDS011;38934;52.690;6.184;2023-06-01T07:42:51;8.20;;;5.20;;
53052;SDS011;38934;52.690;6.184;2023-06-01T07:45:17;8.57;;;4.70;;
53052;SDS011;38934;52.690;6.184;2023-06-01T07:47:45;9.88;;;4.50;;
53052;SDS011;38934;52.690;6.184;2023-06-01T07:50:10;7.90;;;4.38;;
53052;SDS011;38934;52.690;6.184;2023-06-01T07:52:37;8.30;;;4.57;;
53052;SDS011;38934;52.690;6.184;2023-06-01T07:55:03;9.63;;;4.70;;
53052;SDS011;38934;52.690;6.184;2023-06-01T07:57:31;9.90;;;5.00;;
53052;SDS011;38934;52.690;6.184;2023-06-01T07:59:57;12.13;;;4.75;;
53052;SDS011;38934;52.690;6.184;2023-06-01T08:02:22;9.85;;;4.30;;
53052;SDS011;38934;52.690;6.184;2023-06-01T08:04:48;8.73;;;4.55;;
53052;SDS011;38934;52.690;6.184;2023-06-01T08:07:14;11.30;;;5.05;;
53052;SDS011;38934;52.690;6.184;2023-06-01T08:09:41;11.20;;;4.85;;
53052;SDS011;38934;52.690;6.184;2023-06-01T08:12:08;9.15;;;4.43;;
53052;SDS011;38934;52.690;6.184;2023-06-01T08:14:36;11.13;;;4.40;;
53052;SDS011;38934;52.690;6.184;2023-06-01T08:17:02;7.80;;;3.67;;
53052;SDS011;38934;52.690;6.184;2023-06-01T08:19:28;9.88;;;4.50;;
53052;SDS011;38934;52.690;6.184;2023-06-01T08:21:54;10.50;;;4.45;;
53052;SDS011;38934;52.690;6.184;2023-06-01T08:24:20;10.68;;;4.53;;
53052;SDS011;38934;52.690;6.184;2023-06-01T08:26:50;10.48;;;4.60;;
53052;SDS011;38934;52.690;6.184;2023-06-01T08:29:19;10.63;;;4.03;;
53052;SDS011;38934;52.690;6.184;2023-06-01T08:31:45;9.20;;;4.70;;
53052;SDS011;38934;52.690;6.184;2023-06-01T08:34:11;6.13;;;3.95;;
53052;SDS011;38934;52.690;6.184;2023-06-01T08:36:36;10.43;;;4.25;;
53052;SDS011;38934;52.690;6.184;2023-06-01T08:39:19;8.10;;;4.40;;
53052;SDS011;38934;52.690;6.184;2023-06-01T08:42:12;8.65;;;4.40;;
53052;SDS011;38934;52.690;6.184;2023-06-01T08:44:49;8.57;;;4.20;;
53052;SDS011;38934;52.690;6.184;2023-06-01T08:47:20;10.07;;;4.38;;
53052;SDS011;38934;52.690;6.184;2023-06-01T08:49:49;7.90;;;4.45;;
53052;SDS011;38934;52.690;6.184;2023-06-01T08:52:18;8.77;;;4.43;;
53052;SDS011;38934;52.690;6.184;2023-06-01T08:54:47;9.55;;;4.35;;
53052;SDS011;38934;52.690;6.184;2023-06-01T08:57:13;9.23;;;4.00;;
53052;SDS011;38934;52.690;6.184;2023-06-01T08:59:41;7.85;;;4.25;;
53052;SDS011;38934;52.690;6.184;2023-06-01T09:02:06;8.02;;;3.90;;
53052;SDS011;38934;52.690;6.184;2023-06-01T09:04:33;9.27;;;4.65;;
53052;SDS011;38934;52.690;6.184;2023-06-01T09:07:01;7.93;;;4.38;;
53052;SDS011;38934;52.690;6.184;2023-06-01T09:09:27;9.70;;;4.50;;
53052;SDS011;38934;52.690;6.184;2023-06-01T09:14:47;6.97;;;3.90;;
53052;SDS011;38934;52.690;6.184;2023-06-01T09:17:23;9.50;;;4.00;;
53052;SDS011;38934;52.690;6.184;2023-06-01T09:19:50;8.30;;;4.65;;
53052;SDS011;38934;52.690;6.184;2023-06-01T09:22:22;10.27;;;3.80;;
53052;SDS011;38934;52.690;6.184;2023-06-01T09:24:57;8.80;;;4.10;;
53052;SDS011;38934;52.690;6.184;2023-06-01T09:27:24;8.40;;;4.88;;
53052;SDS011;38934;52.690;6.184;2023-06-01T09:29:57;7.38;;;3.80;;
53052;SDS011;38934;52.690;6.184;2023-06-01T09:32:26;9.68;;;4.15;;
53052;SDS011;38934;52.690;6.184;2023-06-01T09:34:53;5.32;;;2.67;;
53052;SDS011;38934;52.690;6.184;2023-06-01T09:37:20;4.68;;;2.40;;
53052;SDS011;38934;52.690;6.184;2023-06-01T09:39:45;3.25;;;2.28;;
53052;SDS011;38934;52.690;6.184;2023-06-01T09:42:11;6.80;;;2.40;;
53052;SDS011;38934;52.690;6.184;2023-06-01T09:44:39;4.68;;;2.72;;
53052;SDS011;38934;52.690;6.184;2023-06-01T09:47:07;5.93;;;3.58;;
53052;SDS011;38934;52.690;6.184;2023-06-01T09:49:42;5.22;;;3.22;;
53052;SDS011;38934;52.690;6.184;2023-06-01T09:52:13;8.20;;;3.65;;
53052;SDS011;38934;52.690;6.184;2023-06-01T09:54:44;9.10;;;4.28;;
53052;SDS011;38934;52.690;6.184;2023-06-01T09:57:10;7.55;;;3.38;;
53052;SDS011;38934;52.690;6.184;2023-06-01T09:59:46;6.22;;;2.80;;
53052;SDS011;38934;52.690;6.184;2023-06-01T10:04:40;5.93;;;2.88;;
53052;SDS011;38934;52.690;6.184;2023-06-01T10:07:09;4.57;;;3.13;;
53052;SDS011;38934;52.690;6.184;2023-06-01T10:09:38;5.13;;;3.03;;
53052;SDS011;38934;52.690;6.184;2023-06-01T10:12:06;5.30;;;3.20;;
53052;SDS011;38934;52.690;6.184;2023-06-01T10:14:33;4.70;;;3.33;;
53052;SDS011;38934;52.690;6.184;2023-06-01T10:16:58;5.15;;;3.20;;
53052;SDS011;38934;52.690;6.184;2023-06-01T10:19:25;4.70;;;3.30;;
53052;SDS011;38934;52.690;6.184;2023-06-01T10:21:51;4.70;;;2.85;;
53052;SDS011;38934;52.690;6.184;2023-06-01T10:24:17;4.68;;;2.90;;
53052;SDS011;38934;52.690;6.184;2023-06-01T10:29:12;4.70;;;2.90;;
53052;SDS011;38934;52.690;6.184;2023-06-01T10:31:41;4.95;;;3.03;;
53052;SDS011;38934;52.690;6.184;2023-06-01T10:34:09;4.43;;;3.05;;
53052;SDS011;38934;52.690;6.184;2023-06-01T10:41:49;8.10;;;3.70;;
53052;SDS011;38934;52.690;6.184;2023-06-01T10:47:03;7.68;;;3.67;;
53052;SDS011;38934;52.690;6.184;2023-06-01T10:52:49;9.45;;;3.97;;
53052;SDS011;38934;52.690;6.184;2023-06-01T10:57:37;9.85;;;4.43;;
53052;SDS011;38934;52.690;6.184;2023-06-01T11:03:03;8.85;;;4.70;;
53052;SDS011;38934;52.690;6.184;2023-06-01T11:18:52;9.85;;;4.50;;
53052;SDS011;38934;52.690;6.184;2023-06-01T11:21:23;7.20;;;3.80;;
53052;SDS011;38934;52.690;6.184;2023-06-01T11:23:51;10.52;;;4.28;;
53052;SDS011;38934;52.690;6.184;2023-06-01T11:26:22;10.30;;;4.47;;
53052;SDS011;38934;52.690;6.184;2023-06-01T11:28:50;8.52;;;3.95;;
53052;SDS011;38934;52.690;6.184;2023-06-01T11:31:18;9.73;;;3.97;;
53052;SDS011;38934;52.690;6.184;2023-06-01T11:33:48;10.95;;;4.28;;
53052;SDS011;38934;52.690;6.184;2023-06-01T11:36:22;12.80;;;4.70;;
53052;SDS011;38934;52.690;6.184;2023-06-01T11:38:52;9.43;;;4.28;;
53052;SDS011;38934;52.690;6.184;2023-06-01T11:41:20;11.50;;;4.50;;
53052;SDS011;38934;52.690;6.184;2023-06-01T11:43:54;10.32;;;4.30;;
53052;SDS011;38934;52.690;6.184;2023-06-01T11:46:21;10.88;;;4.30;;
53052;SDS011;38934;52.690;6.184;2023-06-01T11:49:01;11.60;;;4.22;;
53052;SDS011;38934;52.690;6.184;2023-06-01T11:51:33;10.70;;;3.88;;
53052;SDS011;38934;52.690;6.184;2023-06-01T11:54:03;8.73;;;4.20;;
53052;SDS011;38934;52.690;6.184;2023-06-01T11:56:33;9.57;;;4.30;;
53052;SDS011;38934;52.690;6.184;2023-06-01T11:59:01;10.65;;;3.90;;
53052;SDS011;38934;52.690;6.184;2023-06-01T12:01:33;7.00;;;3.83;;
53052;SDS011;38934;52.690;6.184;2023-06-01T12:04:00;11.18;;;4.10;;
53052;SDS011;38934;52.690;6.184;2023-06-01T12:06:27;10.73;;;4.30;;
53052;SDS011;38934;52.690;6.184;2023-06-01T12:08:56;10.38;;;4.35;;
53052;SDS011;38934;52.690;6.184;2023-06-01T12:11:24;8.15;;;3.88;;
53052;SDS011;38934;52.690;6.184;2023-06-01T12:13:57;12.63;;;4.40;;
53052;SDS011;38934;52.690;6.184;2023-06-01T12:16:23;8.20;;;3.90;;
53052;SDS011;38934;52.690;6.184;2023-06-01T12:18:50;9.23;;;4.38;;
53052;SDS011;38934;52.690;6.184;2023-06-01T12:21:16;8.27;;;4.13;;
53052;SDS011;38934;52.690;6.184;2023-06-01T12:23:48;11.13;;;4.30;;
53052;SDS011;38934;52.690;6.184;2023-06-01T12:26:18;7.05;;;4.05;;
53052;SDS011;38934;52.690;6.184;2023-06-01T12:28:47;10.13;;;4.30;;
53052;SDS011;38934;52.690;6.184;2023-06-01T12:31:16;12.82;;;4.28;;
53052;SDS011;38934;52.690;6.184;2023-06-01T12:33:43;8.15;;;4.10;;
53052;SDS011;38934;52.690;6.184;2023-06-01T12:36:10;12.00;;;4.30;;
53052;SDS011;38934;52.690;6.184;2023-06-01T12:38:52;12.43;;;4.33;;
53052;SDS011;38934;52.690;6.184;2023-06-01T12:41:18;10.20;;;4.97;;
53052;SDS011;38934;52.690;6.184;2023-06-01T12:43:44;8.52;;;4.15;;
53052;SDS011;38934;52.690;6.184;2023-06-01T12:46:31;9.52;;;4.60;;
53052;SDS011;38934;52.690;6.184;2023-06-01T12:49:14;10.15;;;4.90;;
53052;SDS011;38934;52.690;6.184;2023-06-01T12:51:44;9.35;;;4.97;;
53052;SDS011;38934;52.690;6.184;2023-06-01T12:54:10;12.13;;;4.90;;
53052;SDS011;38934;52.690;6.184;2023-06-01T12:56:36;10.98;;;4.60;;
53052;SDS011;38934;52.690;6.184;2023-06-01T12:59:02;11.82;;;4.90;;
53052;SDS011;38934;52.690;6.184;2023-06-01T13:01:28;10.23;;;4.60;;
53052;SDS011;38934;52.690;6.184;2023-06-01T13:03:54;10.98;;;4.30;;
53052;SDS011;38934;52.690;6.184;2023-06-01T13:06:21;7.60;;;4.32;;
53052;SDS011;38934;52.690;6.184;2023-06-01T13:08:46;9.98;;;4.40;;
53052;SDS011;38934;52.690;6.184;2023-06-01T13:11:12;8.90;;;4.55;;
53052;SDS011;38934;52.690;6.184;2023-06-01T13:13:37;9.52;;;4.50;;
53052;SDS011;38934;52.690;6.184;2023-06-01T13:16:03;13.48;;;4.70;;
53052;SDS011;38934;52.690;6.184;2023-06-01T13:18:30;9.43;;;4.13;;
53052;SDS011;38934;52.690;6.184;2023-06-01T13:20:55;10.25;;;4.10;;
53052;SDS011;38934;52.690;6.184;2023-06-01T13:23:21;10.60;;;3.65;;
53052;SDS011;38934;52.690;6.184;2023-06-01T13:25:47;8.88;;;3.80;;
53052;SDS011;38934;52.690;6.184;2023-06-01T13:28:13;10.40;;;3.78;;
53052;SDS011;38934;52.690;6.184;2023-06-01T13:30:40;7.32;;;3.65;;
53052;SDS011;38934;52.690;6.184;2023-06-01T13:33:07;8.20;;;3.95;;
53052;SDS011;38934;52.690;6.184;2023-06-01T13:35:33;7.13;;;3.80;;
53052;SDS011;38934;52.690;6.184;2023-06-01T13:37:59;7.55;;;3.75;;
53052;SDS011;38934;52.690;6.184;2023-06-01T13:40:25;9.32;;;4.20;;
53052;SDS011;38934;52.690;6.184;2023-06-01T13:42:51;6.32;;;3.75;;
53052;SDS011;38934;52.690;6.184;2023-06-01T13:45:18;10.02;;;4.05;;
53052;SDS011;38934;52.690;6.184;2023-06-01T13:47:45;8.98;;;3.88;;
53052;SDS011;38934;52.690;6.184;2023-06-01T13:50:11;11.40;;;3.90;;
53052;SDS011;38934;52.690;6.184;2023-06-01T13:52:37;8.98;;;4.10;;
53052;SDS011;38934;52.690;6.184;2023-06-01T13:55:07;9.93;;;3.88;;
53052;SDS011;38934;52.690;6.184;2023-06-01T13:57:34;12.68;;;3.70;;
53052;SDS011;38934;52.690;6.184;2023-06-01T14:00:01;8.55;;;3.60;;
53052;SDS011;38934;52.690;6.184;2023-06-01T14:02:28;12.90;;;4.10;;
53052;SDS011;38934;52.690;6.184;2023-06-01T14:04:54;10.43;;;3.50;;
53052;SDS011;38934;52.690;6.184;2023-06-01T14:07:20;7.25;;;3.83;;
53052;SDS011;38934;52.690;6.184;2023-06-01T14:09:46;11.05;;;3.80;;
53052;SDS011;38934;52.690;6.184;2023-06-01T14:12:11;7.78;;;3.40;;
53052;SDS011;38934;52.690;6.184;2023-06-01T14:14:37;7.13;;;3.67;;
53052;SDS011;38934;52.690;6.184;2023-06-01T14:17:03;7.35;;;3.70;;
53052;SDS011;38934;52.690;6.184;2023-06-01T14:19:30;10.35;;;3.90;;
53052;SDS011;38934;52.690;6.184;2023-06-01T14:21:55;8.52;;;3.50;;
53052;SDS011;38934;52.690;6.184;2023-06-01T14:24:24;7.80;;;3.80;;
53052;SDS011;38934;52.690;6.184;2023-06-01T14:26:50;6.85;;;3.53;;
53052;SDS011;38934;52.690;6.184;2023-06-01T14:29:15;9.73;;;4.20;;
53052;SDS011;38934;52.690;6.184;2023-06-01T14:31:41;11.07;;;4.72;;
53052;SDS011;38934;52.690;6.184;2023-06-01T14:34:08;9.82;;;4.82;;
53052;SDS011;38934;52.690;6.184;2023-06-01T14:36:34;8.88;;;4.63;;
53052;SDS011;38934;52.690;6.184;2023-06-01T14:38:59;11.57;;;5.28;;
53052;SDS011;38934;52.690;6.184;2023-06-01T14:41:25;8.32;;;4.68;;
53052;SDS011;38934;52.690;6.184;2023-06-01T14:43:51;11.93;;;4.65;;
53052;SDS011;38934;52.690;6.184;2023-06-01T14:46:17;8.90;;;4.40;;
53052;SDS011;38934;52.690;6.184;2023-06-01T14:48:43;8.05;;;4.40;;
53052;SDS011;38934;52.690;6.184;2023-06-01T14:51:09;11.20;;;4.53;;
53052;SDS011;38934;52.690;6.184;2023-06-01T14:53:34;8.38;;;4.35;;
53052;SDS011;38934;52.690;6.184;2023-06-01T14:56:00;8.90;;;3.88;;
53052;SDS011;38934;52.690;6.184;2023-06-01T14:58:28;8.15;;;3.90;;
53052;SDS011;38934;52.690;6.184;2023-06-01T15:00:55;9.43;;;4.90;;
53052;SDS011;38934;52.690;6.184;2023-06-01T15:03:20;14.02;;;4.65;;
53052;SDS011;38934;52.690;6.184;2023-06-01T15:05:46;10.90;;;4.65;;
53052;SDS011;38934;52.690;6.184;2023-06-01T15:08:12;7.72;;;4.32;;
53052;SDS011;38934;52.690;6.184;2023-06-01T15:10:40;8.38;;;4.28;;
53052;SDS011;38934;52.690;6.184;2023-06-01T15:13:06;8.27;;;3.78;;
53052;SDS011;38934;52.690;6.184;2023-06-01T15:15:32;7.22;;;3.88;;
53052;SDS011;38934;52.690;6.184;2023-06-01T15:17:57;7.30;;;3.22;;
53052;SDS011;38934;52.690;6.184;2023-06-01T15:20:23;8.02;;;3.90;;
53052;SDS011;38934;52.690;6.184;2023-06-01T15:22:49;6.20;;;3.55;;
53052;SDS011;38934;52.690;6.184;2023-06-01T15:25:15;7.65;;;3.60;;
53052;SDS011;38934;52.690;6.184;2023-06-01T15:27:42;5.90;;;3.42;;
53052;SDS011;38934;52.690;6.184;2023-06-01T15:30:08;9.40;;;3.67;;